Budapest Bridge — VRIZ5 — position and weather

sailwx.info

Track history (hours):
 
Tides and Currents Weather Stations Pressure Air Temp Water Temp Dewpoint Dewpoint Depression Visibility Wind Speed Wind Dir Waves Ship Positions

Budapest Bridge

Last reported at 2015-Jan-26 18:00 UTC. Time now 2015-Jan-31 13:10 UTC.
Position S 13°42' E 075°12'.

Length 268 m; draft 11.3 m.

Type: Cargo ship. MMSI: 477434200.

Wind from 330 at 19 knots

Barometer 1008.0 mb
Air temperature 27.0 ° C
Visibility: greater than 5.4 NM
Dewpoint 24.1 ° C
Water temperature 29.0 ° C

Date/timePositionNaut miles runAvg speedWind from/ knotsBaromVisibWave heightAir tempDewpointWater temp
2015-Jan-26 18:00S 13°42' E 075°12'17514.6 330 / 191008.0 5.4 27.024.129.0
2015-Jan-26 06:00S 12°06' E 077°42'37115.5 330 / 301009.0 5.4 27.022.628.0
2015-Jan-25 06:00S 07°36' E 082°00'   050 / 141013.010.8 31.025.430.0
2015-Jan-21 00:27N 01°48' E 102°33'1414.8
2015-Jan-20 23:29N 01°42' E 102°46'6215.9
2015-Jan-20 19:33N 01°14' E 103°42'4 0.9
2015-Jan-20 15:26N 01°17' E 103°45'0 0.0
2015-Jan-20 14:14N 01°17' E 103°45'0 0.0
2015-Jan-20 13:23N 01°17' E 103°45'0 0.0
2015-Jan-20 12:29N 01°17' E 103°45'0 0.0
2015-Jan-20 10:23N 01°17' E 103°45'0 0.0
2015-Jan-20 09:05N 01°17' E 103°45'0 0.0
2015-Jan-20 07:17N 01°17' E 103°45'0 0.0
2015-Jan-20 06:32N 01°17' E 103°45'0 0.0
2015-Jan-20 05:14N 01°17' E 103°45'0 0.0
2015-Jan-20 04:32N 01°17' E 103°45'1 0.8
2015-Jan-20 03:31N 01°16' E 103°46'1 0.6
2015-Jan-20 02:33N 01°15' E 103°46'10 9.9
2015-Jan-20 01:33N 01°14' E 103°56'10 9.7
2015-Jan-20 00:32N 01°16' E 104°06'9 9.7
2015-Jan-19 23:33N 01°17' E 104°15'  
Track history (hours):
 
Tides and Currents Weather Stations Pressure Air Temp Water Temp Dewpoint Dewpoint Depression Visibility Wind Speed Wind Dir Waves Ship Positions

Budapest Bridge

Last reported at 2015-Jan-26 18:00 UTC. Time now 2015-Jan-31 13:10 UTC.
Position S 13°42' E 075°12'.

Length 268 m; draft 11.3 m.

Type: Cargo ship. MMSI: 477434200.

Wind from 330 at 19 knots

Barometer 1008.0 mb
Air temperature 27.0 ° C
Visibility: greater than 5.4 NM
Dewpoint 24.1 ° C
Water temperature 29.0 ° C

Date/timePositionNaut miles runAvg speedWind from/ knotsBaromVisibWave heightAir tempDewpointWater temp
2015-Jan-26 18:00S 13°42' E 075°12'17514.6 330 / 191008.0 5.4 27.024.129.0
2015-Jan-26 06:00S 12°06' E 077°42'37115.5 330 / 301009.0 5.4 27.022.628.0
2015-Jan-25 06:00S 07°36' E 082°00'   050 / 141013.010.8 31.025.430.0
2015-Jan-21 00:27N 01°48' E 102°33'1414.8
2015-Jan-20 23:29N 01°42' E 102°46'6215.9
2015-Jan-20 19:33N 01°14' E 103°42'4 0.9
2015-Jan-20 15:26N 01°17' E 103°45'0 0.0
2015-Jan-20 14:14N 01°17' E 103°45'0 0.0
2015-Jan-20 13:23N 01°17' E 103°45'0 0.0
2015-Jan-20 12:29N 01°17' E 103°45'0 0.0
2015-Jan-20 10:23N 01°17' E 103°45'0 0.0
2015-Jan-20 09:05N 01°17' E 103°45'0 0.0
2015-Jan-20 07:17N 01°17' E 103°45'0 0.0
2015-Jan-20 06:32N 01°17' E 103°45'0 0.0
2015-Jan-20 05:14N 01°17' E 103°45'0 0.0
2015-Jan-20 04:32N 01°17' E 103°45'1 0.8
2015-Jan-20 03:31N 01°16' E 103°46'1 0.6
2015-Jan-20 02:33N 01°15' E 103°46'10 9.9
2015-Jan-20 01:33N 01°14' E 103°56'10 9.7
2015-Jan-20 00:32N 01°16' E 104°06'9 9.7
2015-Jan-19 23:33N 01°17' E 104°15'  

Dump ship's entire track history